sensor_id;sensor_type;location;lat;lon;timestamp;P1;durP1;ratioP1;P2;durP2;ratioP2
9807;SDS011;4943;52.550;13.462;2023-09-08T00:01:59;588.37;;;539.80;;
9807;SDS011;4943;52.550;13.462;2023-09-08T00:04:27;565.00;;;517.53;;
9807;SDS011;4943;52.550;13.462;2023-09-08T00:06:55;582.30;;;533.87;;
9807;SDS011;4943;52.550;13.462;2023-09-08T00:09:23;585.23;;;537.37;;
9807;SDS011;4943;52.550;13.462;2023-09-08T00:11:53;589.73;;;541.33;;
9807;SDS011;4943;52.550;13.462;2023-09-08T00:14:21;577.10;;;529.20;;
9807;SDS011;4943;52.550;13.462;2023-09-08T00:16:51;597.70;;;549.17;;
9807;SDS011;4943;52.550;13.462;2023-09-08T00:19:21;594.63;;;546.03;;
9807;SDS011;4943;52.550;13.462;2023-09-08T00:21:50;603.57;;;553.87;;
9807;SDS011;4943;52.550;13.462;2023-09-08T00:24:18;596.17;;;547.07;;
9807;SDS011;4943;52.550;13.462;2023-09-08T00:26:46;597.17;;;548.43;;
9807;SDS011;4943;52.550;13.462;2023-09-08T00:29:16;580.37;;;532.10;;
9807;SDS011;4943;52.550;13.462;2023-09-08T00:31:44;570.93;;;523.13;;
9807;SDS011;4943;52.550;13.462;2023-09-08T00:34:13;586.87;;;538.67;;
9807;SDS011;4943;52.550;13.462;2023-09-08T00:36:41;572.40;;;524.83;;
9807;SDS011;4943;52.550;13.462;2023-09-08T00:39:09;598.37;;;549.30;;
9807;SDS011;4943;52.550;13.462;2023-09-08T00:41:37;576.77;;;528.97;;
9807;SDS011;4943;52.550;13.462;2023-09-08T00:44:05;578.63;;;530.67;;
9807;SDS011;4943;52.550;13.462;2023-09-08T00:46:36;608.27;;;558.70;;
9807;SDS011;4943;52.550;13.462;2023-09-08T00:49:06;591.90;;;542.77;;
9807;SDS011;4943;52.550;13.462;2023-09-08T00:51:35;578.77;;;530.43;;
9807;SDS011;4943;52.550;13.462;2023-09-08T00:54:05;589.80;;;541.33;;
9807;SDS011;4943;52.550;13.462;2023-09-08T00:56:34;579.27;;;530.97;;
9807;SDS011;4943;52.550;13.462;2023-09-08T00:59:04;589.03;;;540.83;;
9807;SDS011;4943;52.550;13.462;2023-09-08T01:01:35;601.50;;;552.00;;
9807;SDS011;4943;52.550;13.462;2023-09-08T01:04:04;598.30;;;549.03;;
9807;SDS011;4943;52.550;13.462;2023-09-08T01:06:33;540.10;;;493.87;;
9807;SDS011;4943;52.550;13.462;2023-09-08T01:09:01;551.77;;;504.37;;
9807;SDS011;4943;52.550;13.462;2023-09-08T01:11:29;573.87;;;525.80;;
9807;SDS011;4943;52.550;13.462;2023-09-08T01:13:58;576.47;;;527.77;;
9807;SDS011;4943;52.550;13.462;2023-09-08T01:16:26;563.93;;;516.47;;
9807;SDS011;4943;52.550;13.462;2023-09-08T01:18:56;575.37;;;526.97;;
9807;SDS011;4943;52.550;13.462;2023-09-08T01:21:32;566.47;;;518.80;;
9807;SDS011;4943;52.550;13.462;2023-09-08T01:24:38;544.30;;;497.60;;
9807;SDS011;4943;52.550;13.462;2023-09-08T01:27:43;548.80;;;501.83;;
9807;SDS011;4943;52.550;13.462;2023-09-08T01:30:14;551.57;;;504.07;;
9807;SDS011;4943;52.550;13.462;2023-09-08T01:32:43;566.77;;;519.10;;
9807;SDS011;4943;52.550;13.462;2023-09-08T01:35:13;542.83;;;496.50;;
9807;SDS011;4943;52.550;13.462;2023-09-08T01:37:42;532.53;;;486.50;;
9807;SDS011;4943;52.550;13.462;2023-09-08T01:40:12;552.50;;;505.47;;
9807;SDS011;4943;52.550;13.462;2023-09-08T01:42:42;551.90;;;504.93;;
9807;SDS011;4943;52.550;13.462;2023-09-08T01:45:12;539.87;;;492.47;;
9807;SDS011;4943;52.550;13.462;2023-09-08T01:47:40;523.20;;;477.67;;
9807;SDS011;4943;52.550;13.462;2023-09-08T01:50:08;555.50;;;507.83;;
9807;SDS011;4943;52.550;13.462;2023-09-08T01:52:36;578.30;;;529.83;;
9807;SDS011;4943;52.550;13.462;2023-09-08T01:55:05;597.33;;;547.80;;
9807;SDS011;4943;52.550;13.462;2023-09-08T01:57:34;564.27;;;516.70;;
9807;SDS011;4943;52.550;13.462;2023-09-08T02:00:04;549.00;;;501.90;;
9807;SDS011;4943;52.550;13.462;2023-09-08T02:02:33;564.13;;;516.50;;
9807;SDS011;4943;52.550;13.462;2023-09-08T02:05:01;590.27;;;541.17;;
9807;SDS011;4943;52.550;13.462;2023-09-08T02:07:29;566.13;;;518.47;;
9807;SDS011;4943;52.550;13.462;2023-09-08T02:09:57;603.50;;;553.90;;
9807;SDS011;4943;52.550;13.462;2023-09-08T02:12:26;585.67;;;536.90;;
9807;SDS011;4943;52.550;13.462;2023-09-08T02:14:54;576.97;;;528.40;;
9807;SDS011;4943;52.550;13.462;2023-09-08T02:17:24;563.13;;;514.87;;
9807;SDS011;4943;52.550;13.462;2023-09-08T02:19:52;574.23;;;525.87;;
9807;SDS011;4943;52.550;13.462;2023-09-08T02:22:20;563.63;;;515.80;;
9807;SDS011;4943;52.550;13.462;2023-09-08T02:24:48;547.10;;;499.63;;
9807;SDS011;4943;52.550;13.462;2023-09-08T02:27:18;576.17;;;527.23;;
9807;SDS011;4943;52.550;13.462;2023-09-08T02:29:46;564.57;;;516.83;;
9807;SDS011;4943;52.550;13.462;2023-09-08T02:32:15;591.47;;;542.20;;
9807;SDS011;4943;52.550;13.462;2023-09-08T02:34:44;582.37;;;533.10;;
9807;SDS011;4943;52.550;13.462;2023-09-08T02:37:14;588.77;;;539.67;;
9807;SDS011;4943;52.550;13.462;2023-09-08T02:39:44;583.90;;;535.33;;
9807;SDS011;4943;52.550;13.462;2023-09-08T02:42:12;582.93;;;534.10;;
9807;SDS011;4943;52.550;13.462;2023-09-08T02:44:40;565.63;;;518.30;;
9807;SDS011;4943;52.550;13.462;2023-09-08T02:47:09;582.10;;;533.03;;
9807;SDS011;4943;52.550;13.462;2023-09-08T02:49:37;583.00;;;534.03;;
9807;SDS011;4943;52.550;13.462;2023-09-08T02:52:07;559.80;;;511.93;;
9807;SDS011;4943;52.550;13.462;2023-09-08T02:54:35;578.20;;;529.53;;
9807;SDS011;4943;52.550;13.462;2023-09-08T02:57:03;570.27;;;521.63;;
9807;SDS011;4943;52.550;13.462;2023-09-08T02:59:31;568.47;;;520.63;;
9807;SDS011;4943;52.550;13.462;2023-09-08T03:01:59;578.50;;;529.53;;
9807;SDS011;4943;52.550;13.462;2023-09-08T03:04:28;565.13;;;516.83;;
9807;SDS011;4943;52.550;13.462;2023-09-08T03:06:56;569.27;;;520.67;;
9807;SDS011;4943;52.550;13.462;2023-09-08T03:09:25;565.07;;;516.77;;
9807;SDS011;4943;52.550;13.462;2023-09-08T03:11:53;579.27;;;530.30;;
9807;SDS011;4943;52.550;13.462;2023-09-08T03:14:21;576.50;;;527.30;;
9807;SDS011;4943;52.550;13.462;2023-09-08T03:16:49;576.13;;;527.30;;
9807;SDS011;4943;52.550;13.462;2023-09-08T03:19:17;574.57;;;525.93;;
9807;SDS011;4943;52.550;13.462;2023-09-08T03:21:45;570.70;;;522.10;;
9807;SDS011;4943;52.550;13.462;2023-09-08T03:24:14;555.80;;;507.70;;
9807;SDS011;4943;52.550;13.462;2023-09-08T03:26:43;558.63;;;510.47;;
9807;SDS011;4943;52.550;13.462;2023-09-08T03:29:11;579.03;;;530.07;;
9807;SDS011;4943;52.550;13.462;2023-09-08T03:31:39;563.00;;;514.30;;
9807;SDS011;4943;52.550;13.462;2023-09-08T03:34:08;573.77;;;524.53;;
9807;SDS011;4943;52.550;13.462;2023-09-08T03:36:36;561.03;;;512.50;;
9807;SDS011;4943;52.550;13.462;2023-09-08T03:39:04;591.83;;;542.00;;
9807;SDS011;4943;52.550;13.462;2023-09-08T03:41:32;573.97;;;525.20;;
9807;SDS011;4943;52.550;13.462;2023-09-08T03:44:01;586.37;;;536.93;;
9807;SDS011;4943;52.550;13.462;2023-09-08T03:46:30;603.57;;;553.63;;
9807;SDS011;4943;52.550;13.462;2023-09-08T03:48:58;571.13;;;522.07;;
9807;SDS011;4943;52.550;13.462;2023-09-08T03:51:27;580.20;;;530.57;;
9807;SDS011;4943;52.550;13.462;2023-09-08T03:53:55;574.17;;;525.23;;
9807;SDS011;4943;52.550;13.462;2023-09-08T03:56:23;578.03;;;528.37;;
9807;SDS011;4943;52.550;13.462;2023-09-08T03:58:51;564.33;;;515.37;;
9807;SDS011;4943;52.550;13.462;2023-09-08T04:01:21;570.27;;;521.43;;
9807;SDS011;4943;52.550;13.462;2023-09-08T04:03:49;565.70;;;516.70;;
9807;SDS011;4943;52.550;13.462;2023-09-08T04:06:17;566.20;;;517.73;;
9807;SDS011;4943;52.550;13.462;2023-09-08T04:08:45;540.07;;;492.70;;
9807;SDS011;4943;52.550;13.462;2023-09-08T04:11:13;558.33;;;509.97;;
9807;SDS011;4943;52.550;13.462;2023-09-08T04:13:41;552.63;;;504.17;;
9807;SDS011;4943;52.550;13.462;2023-09-08T04:16:10;557.30;;;509.27;;
9807;SDS011;4943;52.550;13.462;2023-09-08T04:18:39;532.50;;;485.33;;
9807;SDS011;4943;52.550;13.462;2023-09-08T04:21:07;535.30;;;488.30;;
9807;SDS011;4943;52.550;13.462;2023-09-08T04:23:35;555.57;;;507.57;;
9807;SDS011;4943;52.550;13.462;2023-09-08T04:26:03;548.43;;;500.90;;
9807;SDS011;4943;52.550;13.462;2023-09-08T04:28:31;509.80;;;463.67;;
9807;SDS011;4943;52.550;13.462;2023-09-08T04:30:59;529.93;;;483.07;;
9807;SDS011;4943;52.550;13.462;2023-09-08T04:33:28;525.00;;;477.40;;
9807;SDS011;4943;52.550;13.462;2023-09-08T04:35:58;509.50;;;463.60;;
9807;SDS011;4943;52.550;13.462;2023-09-08T04:38:26;507.87;;;462.07;;
9807;SDS011;4943;52.550;13.462;2023-09-08T04:40:54;560.37;;;512.60;;
9807;SDS011;4943;52.550;13.462;2023-09-08T04:43:22;510.53;;;464.50;;
9807;SDS011;4943;52.550;13.462;2023-09-08T04:45:50;487.43;;;442.67;;
9807;SDS011;4943;52.550;13.462;2023-09-08T04:48:18;505.33;;;459.87;;
9807;SDS011;4943;52.550;13.462;2023-09-08T04:50:46;508.53;;;462.67;;
9807;SDS011;4943;52.550;13.462;2023-09-08T04:53:16;498.17;;;451.93;;
9807;SDS011;4943;52.550;13.462;2023-09-08T04:55:44;524.07;;;477.53;;
9807;SDS011;4943;52.550;13.462;2023-09-08T04:58:13;533.50;;;486.30;;
9807;SDS011;4943;52.550;13.462;2023-09-08T05:00:41;529.00;;;482.00;;
9807;SDS011;4943;52.550;13.462;2023-09-08T05:03:09;529.60;;;481.50;;
9807;SDS011;4943;52.550;13.462;2023-09-08T05:05:37;527.70;;;480.57;;
9807;SDS011;4943;52.550;13.462;2023-09-08T05:08:06;535.43;;;487.33;;
9807;SDS011;4943;52.550;13.462;2023-09-08T05:10:35;483.43;;;438.53;;
9807;SDS011;4943;52.550;13.462;2023-09-08T05:13:03;514.03;;;468.13;;
9807;SDS011;4943;52.550;13.462;2023-09-08T05:15:45;498.80;;;453.53;;
9807;SDS011;4943;52.550;13.462;2023-09-08T05:18:15;528.97;;;481.00;;
9807;SDS011;4943;52.550;13.462;2023-09-08T05:20:43;510.50;;;464.63;;
9807;SDS011;4943;52.550;13.462;2023-09-08T05:23:11;503.53;;;456.80;;
9807;SDS011;4943;52.550;13.462;2023-09-08T05:25:42;485.43;;;440.50;;
9807;SDS011;4943;52.550;13.462;2023-09-08T05:28:11;528.57;;;480.43;;
9807;SDS011;4943;52.550;13.462;2023-09-08T05:30:39;490.67;;;445.20;;
9807;SDS011;4943;52.550;13.462;2023-09-08T05:33:08;486.33;;;441.83;;
9807;SDS011;4943;52.550;13.462;2023-09-08T05:35:36;499.40;;;453.90;;
9807;SDS011;4943;52.550;13.462;2023-09-08T05:38:04;466.60;;;422.53;;
9807;SDS011;4943;52.550;13.462;2023-09-08T05:40:32;444.67;;;401.47;;
9807;SDS011;4943;52.550;13.462;2023-09-08T05:43:03;436.33;;;393.53;;
9807;SDS011;4943;52.550;13.462;2023-09-08T05:45:31;439.47;;;397.60;;
9807;SDS011;4943;52.550;13.462;2023-09-08T05:48:00;422.27;;;380.43;;
9807;SDS011;4943;52.550;13.462;2023-09-08T05:50:28;396.33;;;355.60;;
9807;SDS011;4943;52.550;13.462;2023-09-08T05:52:56;406.20;;;364.50;;
9807;SDS011;4943;52.550;13.462;2023-09-08T05:55:25;345.00;;;274.40;;
9807;SDS011;4943;52.550;13.462;2023-09-08T05:57:53;335.73;;;233.57;;
9807;SDS011;4943;52.550;13.462;2023-09-08T06:00:22;325.13;;;212.00;;
9807;SDS011;4943;52.550;13.462;2023-09-08T06:02:50;345.73;;;276.77;;
9807;SDS011;4943;52.550;13.462;2023-09-08T06:05:18;360.83;;;308.60;;
9807;SDS011;4943;52.550;13.462;2023-09-08T06:07:47;352.60;;;278.33;;
9807;SDS011;4943;52.550;13.462;2023-09-08T06:10:32;364.70;;;304.67;;
9807;SDS011;4943;52.550;13.462;2023-09-08T06:13:00;332.83;;;247.57;;
9807;SDS011;4943;52.550;13.462;2023-09-08T06:15:30;323.10;;;209.77;;
9807;SDS011;4943;52.550;13.462;2023-09-08T06:17:58;319.90;;;200.03;;
9807;SDS011;4943;52.550;13.462;2023-09-08T06:20:26;326.13;;;196.00;;
9807;SDS011;4943;52.550;13.462;2023-09-08T06:22:54;327.83;;;206.80;;
9807;SDS011;4943;52.550;13.462;2023-09-08T06:25:22;311.73;;;171.43;;
9807;SDS011;4943;52.550;13.462;2023-09-08T06:27:50;322.83;;;196.40;;
9807;SDS011;4943;52.550;13.462;2023-09-08T06:30:19;321.83;;;185.13;;
9807;SDS011;4943;52.550;13.462;2023-09-08T06:32:48;319.07;;;183.60;;
9807;SDS011;4943;52.550;13.462;2023-09-08T06:35:16;316.33;;;189.20;;
9807;SDS011;4943;52.550;13.462;2023-09-08T06:37:45;350.30;;;223.30;;
9807;SDS011;4943;52.550;13.462;2023-09-08T06:40:13;353.30;;;295.27;;
9807;SDS011;4943;52.550;13.462;2023-09-08T06:42:41;345.33;;;286.73;;
9807;SDS011;4943;52.550;13.462;2023-09-08T06:45:09;322.97;;;199.83;;
9807;SDS011;4943;52.550;13.462;2023-09-08T06:47:37;335.30;;;252.47;;
9807;SDS011;4943;52.550;13.462;2023-09-08T06:50:07;331.53;;;243.50;;
9807;SDS011;4943;52.550;13.462;2023-09-08T06:52:36;315.70;;;189.17;;
9807;SDS011;4943;52.550;13.462;2023-09-08T06:55:06;330.13;;;211.03;;
9807;SDS011;4943;52.550;13.462;2023-09-08T06:57:35;335.73;;;248.90;;
9807;SDS011;4943;52.550;13.462;2023-09-08T07:00:04;324.63;;;215.67;;
9807;SDS011;4943;52.550;13.462;2023-09-08T07:02:33;342.03;;;288.63;;
9807;SDS011;4943;52.550;13.462;2023-09-08T07:05:02;336.97;;;281.60;;
9807;SDS011;4943;52.550;13.462;2023-09-08T07:07:35;324.20;;;205.50;;
9807;SDS011;4943;52.550;13.462;2023-09-08T07:10:04;330.93;;;246.87;;
9807;SDS011;4943;52.550;13.462;2023-09-08T07:12:33;323.63;;;226.93;;
9807;SDS011;4943;52.550;13.462;2023-09-08T07:15:01;320.23;;;216.80;;
9807;SDS011;4943;52.550;13.462;2023-09-08T07:17:30;317.50;;;201.37;;
9807;SDS011;4943;52.550;13.462;2023-09-08T07:19:58;338.50;;;261.17;;
9807;SDS011;4943;52.550;13.462;2023-09-08T07:22:26;306.03;;;165.00;;
9807;SDS011;4943;52.550;13.462;2023-09-08T07:24:55;304.90;;;161.40;;
9807;SDS011;4943;52.550;13.462;2023-09-08T07:27:24;303.30;;;164.83;;
9807;SDS011;4943;52.550;13.462;2023-09-08T07:29:52;315.37;;;195.37;;
9807;SDS011;4943;52.550;13.462;2023-09-08T07:32:20;305.03;;;162.60;;
9807;SDS011;4943;52.550;13.462;2023-09-08T07:34:51;311.00;;;156.70;;
9807;SDS011;4943;52.550;13.462;2023-09-08T07:37:21;296.33;;;153.67;;
9807;SDS011;4943;52.550;13.462;2023-09-08T07:39:50;299.20;;;153.27;;
9807;SDS011;4943;52.550;13.462;2023-09-08T07:42:19;293.07;;;158.47;;
9807;SDS011;4943;52.550;13.462;2023-09-08T07:44:47;288.60;;;149.00;;
9807;SDS011;4943;52.550;13.462;2023-09-08T07:47:16;301.70;;;156.33;;
9807;SDS011;4943;52.550;13.462;2023-09-08T07:49:44;299.30;;;152.93;;
9807;SDS011;4943;52.550;13.462;2023-09-08T07:52:14;291.93;;;156.67;;
9807;SDS011;4943;52.550;13.462;2023-09-08T07:54:42;293.80;;;154.47;;
9807;SDS011;4943;52.550;13.462;2023-09-08T07:57:10;299.53;;;152.70;;
9807;SDS011;4943;52.550;13.462;2023-09-08T07:59:39;294.83;;;156.50;;
9807;SDS011;4943;52.550;13.462;2023-09-08T08:02:08;302.83;;;160.93;;
9807;SDS011;4943;52.550;13.462;2023-09-08T08:04:37;287.73;;;154.77;;
9807;SDS011;4943;52.550;13.462;2023-09-08T08:07:05;293.13;;;162.00;;
9807;SDS011;4943;52.550;13.462;2023-09-08T08:09:33;290.67;;;159.10;;
9807;SDS011;4943;52.550;13.462;2023-09-08T08:12:01;287.40;;;155.37;;
9807;SDS011;4943;52.550;13.462;2023-09-08T08:14:30;300.57;;;159.27;;
9807;SDS011;4943;52.550;13.462;2023-09-08T08:16:59;294.33;;;157.20;;
9807;SDS011;4943;52.550;13.462;2023-09-08T08:19:27;296.07;;;164.37;;
9807;SDS011;4943;52.550;13.462;2023-09-08T08:21:55;308.73;;;164.87;;
9807;SDS011;4943;52.550;13.462;2023-09-08T08:24:24;296.80;;;164.73;;
9807;SDS011;4943;52.550;13.462;2023-09-08T08:26:53;293.07;;;167.97;;
9807;SDS011;4943;52.550;13.462;2023-09-08T08:29:21;306.30;;;166.07;;
9807;SDS011;4943;52.550;13.462;2023-09-08T08:31:49;290.20;;;160.90;;
9807;SDS011;4943;52.550;13.462;2023-09-08T08:34:19;292.63;;;165.80;;
9807;SDS011;4943;52.550;13.462;2023-09-08T08:36:47;304.87;;;171.67;;
9807;SDS011;4943;52.550;13.462;2023-09-08T08:39:15;291.03;;;169.80;;
9807;SDS011;4943;52.550;13.462;2023-09-08T08:41:43;290.97;;;165.87;;
9807;SDS011;4943;52.550;13.462;2023-09-08T08:44:12;297.17;;;167.60;;
9807;SDS011;4943;52.550;13.462;2023-09-08T08:46:43;294.93;;;167.93;;
9807;SDS011;4943;52.550;13.462;2023-09-08T08:49:14;293.97;;;173.53;;
9807;SDS011;4943;52.550;13.462;2023-09-08T08:51:45;297.77;;;169.27;;
9807;SDS011;4943;52.550;13.462;2023-09-08T08:54:13;297.17;;;165.73;;
9807;SDS011;4943;52.550;13.462;2023-09-08T08:56:43;292.90;;;163.23;;
9807;SDS011;4943;52.550;13.462;2023-09-08T08:59:11;291.80;;;163.17;;
9807;SDS011;4943;52.550;13.462;2023-09-08T09:01:41;294.40;;;168.43;;
9807;SDS011;4943;52.550;13.462;2023-09-08T09:04:10;297.87;;;177.47;;
9807;SDS011;4943;52.550;13.462;2023-09-08T09:06:39;297.17;;;177.70;;
9807;SDS011;4943;52.550;13.462;2023-09-08T09:09:09;297.13;;;175.47;;
9807;SDS011;4943;52.550;13.462;2023-09-08T09:11:37;293.67;;;177.83;;
9807;SDS011;4943;52.550;13.462;2023-09-08T09:14:05;303.80;;;191.97;;
9807;SDS011;4943;52.550;13.462;2023-09-08T09:16:38;300.90;;;189.07;;
9807;SDS011;4943;52.550;13.462;2023-09-08T09:19:07;297.10;;;181.17;;
9807;SDS011;4943;52.550;13.462;2023-09-08T09:21:41;297.37;;;186.60;;
9807;SDS011;4943;52.550;13.462;2023-09-08T09:24:15;299.20;;;177.87;;
9807;SDS011;4943;52.550;13.462;2023-09-08T09:26:46;303.07;;;193.77;;
9807;SDS011;4943;52.550;13.462;2023-09-08T09:29:20;303.63;;;191.60;;
9807;SDS011;4943;52.550;13.462;2023-09-08T09:31:51;303.27;;;198.73;;
9807;SDS011;4943;52.550;13.462;2023-09-08T09:34:20;306.27;;;201.53;;
9807;SDS011;4943;52.550;13.462;2023-09-08T09:36:49;302.73;;;204.20;;
9807;SDS011;4943;52.550;13.462;2023-09-08T09:39:19;305.50;;;207.70;;
9807;SDS011;4943;52.550;13.462;2023-09-08T09:41:48;304.87;;;206.37;;
9807;SDS011;4943;52.550;13.462;2023-09-08T09:44:16;309.47;;;210.90;;
9807;SDS011;4943;52.550;13.462;2023-09-08T09:46:44;309.13;;;216.40;;
9807;SDS011;4943;52.550;13.462;2023-09-08T09:49:13;323.40;;;225.40;;
9807;SDS011;4943;52.550;13.462;2023-09-08T09:51:43;312.77;;;211.60;;
9807;SDS011;4943;52.550;13.462;2023-09-08T09:54:14;308.97;;;210.33;;
9807;SDS011;4943;52.550;13.462;2023-09-08T09:56:44;308.17;;;217.87;;
9807;SDS011;4943;52.550;13.462;2023-09-08T09:59:17;310.17;;;212.33;;
9807;SDS011;4943;52.550;13.462;2023-09-08T10:01:45;301.13;;;205.23;;
9807;SDS011;4943;52.550;13.462;2023-09-08T10:04:13;306.13;;;214.57;;
9807;SDS011;4943;52.550;13.462;2023-09-08T10:06:42;315.40;;;220.93;;
9807;SDS011;4943;52.550;13.462;2023-09-08T10:09:12;308.17;;;218.70;;
9807;SDS011;4943;52.550;13.462;2023-09-08T10:11:45;306.87;;;218.67;;
9807;SDS011;4943;52.550;13.462;2023-09-08T10:14:16;307.70;;;217.77;;
9807;SDS011;4943;52.550;13.462;2023-09-08T10:16:46;303.97;;;209.73;;
9807;SDS011;4943;52.550;13.462;2023-09-08T10:19:16;300.23;;;206.90;;
9807;SDS011;4943;52.550;13.462;2023-09-08T10:21:45;304.80;;;207.60;;
9807;SDS011;4943;52.550;13.462;2023-09-08T10:24:15;311.83;;;214.67;;
9807;SDS011;4943;52.550;13.462;2023-09-08T10:26:51;312.47;;;222.20;;
9807;SDS011;4943;52.550;13.462;2023-09-08T10:29:25;304.57;;;223.10;;
9807;SDS011;4943;52.550;13.462;2023-09-08T10:31:54;310.90;;;222.03;;
9807;SDS011;4943;52.550;13.462;2023-09-08T10:34:24;308.83;;;220.70;;
9807;SDS011;4943;52.550;13.462;2023-09-08T10:36:53;309.33;;;229.20;;
9807;SDS011;4943;52.550;13.462;2023-09-08T10:39:28;304.37;;;221.87;;
9807;SDS011;4943;52.550;13.462;2023-09-08T10:44:55;312.23;;;224.73;;
9807;SDS011;4943;52.550;13.462;2023-09-08T10:47:24;306.93;;;227.00;;
9807;SDS011;4943;52.550;13.462;2023-09-08T10:49:55;307.47;;;220.70;;
9807;SDS011;4943;52.550;13.462;2023-09-08T10:52:26;316.50;;;232.10;;
9807;SDS011;4943;52.550;13.462;2023-09-08T10:54:55;308.50;;;222.33;;
9807;SDS011;4943;52.550;13.462;2023-09-08T10:57:25;306.03;;;231.07;;
9807;SDS011;4943;52.550;13.462;2023-09-08T10:59:53;310.77;;;229.40;;
9807;SDS011;4943;52.550;13.462;2023-09-08T11:02:31;311.77;;;236.57;;
9807;SDS011;4943;52.550;13.462;2023-09-08T11:05:01;309.17;;;237.37;;
9807;SDS011;4943;52.550;13.462;2023-09-08T11:07:31;314.57;;;249.33;;
9807;SDS011;4943;52.550;13.462;2023-09-08T11:09:59;315.20;;;239.87;;
9807;SDS011;4943;52.550;13.462;2023-09-08T11:12:29;313.87;;;234.47;;
9807;SDS011;4943;52.550;13.462;2023-09-08T11:14:58;315.90;;;243.53;;
9807;SDS011;4943;52.550;13.462;2023-09-08T11:17:27;313.10;;;249.87;;
9807;SDS011;4943;52.550;13.462;2023-09-08T11:19:55;311.90;;;242.47;;
9807;SDS011;4943;52.550;13.462;2023-09-08T11:22:24;308.50;;;240.87;;
9807;SDS011;4943;52.550;13.462;2023-09-08T11:24:53;316.27;;;235.03;;
9807;SDS011;4943;52.550;13.462;2023-09-08T11:27:24;308.43;;;242.13;;
9807;SDS011;4943;52.550;13.462;2023-09-08T11:29:55;309.87;;;238.70;;
9807;SDS011;4943;52.550;13.462;2023-09-08T11:32:23;313.33;;;242.10;;
9807;SDS011;4943;52.550;13.462;2023-09-08T11:34:52;320.60;;;244.70;;
9807;SDS011;4943;52.550;13.462;2023-09-08T11:37:20;312.23;;;247.40;;
9807;SDS011;4943;52.550;13.462;2023-09-08T11:39:48;310.90;;;249.03;;
9807;SDS011;4943;52.550;13.462;2023-09-08T11:42:16;315.97;;;249.23;;
9807;SDS011;4943;52.550;13.462;2023-09-08T11:44:47;312.00;;;246.20;;
9807;SDS011;4943;52.550;13.462;2023-09-08T11:47:17;346.30;;;246.87;;
9807;SDS011;4943;52.550;13.462;2023-09-08T11:49:46;312.40;;;249.07;;
9807;SDS011;4943;52.550;13.462;2023-09-08T11:52:14;311.33;;;248.83;;
9807;SDS011;4943;52.550;13.462;2023-09-08T11:54:42;324.60;;;279.30;;
9807;SDS011;4943;52.550;13.462;2023-09-08T11:57:30;311.00;;;249.13;;
9807;SDS011;4943;52.550;13.462;2023-09-08T11:59:59;314.40;;;252.47;;
9807;SDS011;4943;52.550;13.462;2023-09-08T12:02:35;313.33;;;251.70;;
9807;SDS011;4943;52.550;13.462;2023-09-08T12:05:04;314.73;;;258.23;;
9807;SDS011;4943;52.550;13.462;2023-09-08T12:07:32;317.77;;;260.30;;
9807;SDS011;4943;52.550;13.462;2023-09-08T12:10:06;336.77;;;300.67;;
9807;SDS011;4943;52.550;13.462;2023-09-08T12:12:41;330.03;;;291.67;;
9807;SDS011;4943;52.550;13.462;2023-09-08T12:15:09;325.40;;;277.77;;
9807;SDS011;4943;52.550;13.462;2023-09-08T12:17:49;326.97;;;285.83;;
9807;SDS011;4943;52.550;13.462;2023-09-08T12:20:18;329.47;;;267.40;;
9807;SDS011;4943;52.550;13.462;2023-09-08T12:22:49;414.53;;;375.77;;
9807;SDS011;4943;52.550;13.462;2023-09-08T12:25:18;314.00;;;264.23;;
9807;SDS011;4943;52.550;13.462;2023-09-08T12:27:49;320.50;;;276.80;;
9807;SDS011;4943;52.550;13.462;2023-09-08T12:30:18;317.70;;;267.77;;
9807;SDS011;4943;52.550;13.462;2023-09-08T12:32:47;318.83;;;270.03;;
9807;SDS011;4943;52.550;13.462;2023-09-08T12:35:21;312.73;;;265.20;;
9807;SDS011;4943;52.550;13.462;2023-09-08T12:37:53;317.00;;;275.43;;
9807;SDS011;4943;52.550;13.462;2023-09-08T12:40:25;316.70;;;276.83;;
9807;SDS011;4943;52.550;13.462;2023-09-08T12:42:53;322.60;;;281.53;;
9807;SDS011;4943;52.550;13.462;2023-09-08T12:45:31;322.53;;;280.97;;
9807;SDS011;4943;52.550;13.462;2023-09-08T12:48:01;335.73;;;299.27;;
9807;SDS011;4943;52.550;13.462;2023-09-08T12:50:30;326.50;;;289.47;;
9807;SDS011;4943;52.550;13.462;2023-09-08T12:52:58;331.17;;;293.47;;
9807;SDS011;4943;52.550;13.462;2023-09-08T12:55:26;331.07;;;294.47;;
9807;SDS011;4943;52.550;13.462;2023-09-08T12:57:54;329.07;;;292.87;;
9807;SDS011;4943;52.550;13.462;2023-09-08T13:00:23;334.53;;;298.47;;
9807;SDS011;4943;52.550;13.462;2023-09-08T13:02:53;337.90;;;301.37;;
9807;SDS011;4943;52.550;13.462;2023-09-08T13:05:23;355.63;;;318.43;;
9807;SDS011;4943;52.550;13.462;2023-09-08T13:07:51;337.80;;;301.53;;
9807;SDS011;4943;52.550;13.462;2023-09-08T13:10:19;322.13;;;280.10;;
9807;SDS011;4943;52.550;13.462;2023-09-08T13:12:47;342.53;;;305.53;;
9807;SDS011;4943;52.550;13.462;2023-09-08T13:15:16;390.40;;;352.70;;
9807;SDS011;4943;52.550;13.462;2023-09-08T13:17:44;407.40;;;369.00;;
9807;SDS011;4943;52.550;13.462;2023-09-08T13:20:12;385.30;;;347.67;;
9807;SDS011;4943;52.550;13.462;2023-09-08T13:22:42;386.23;;;348.70;;
9807;SDS011;4943;52.550;13.462;2023-09-08T13:25:10;576.83;;;531.73;;
9807;SDS011;4943;52.550;13.462;2023-09-08T13:27:39;518.83;;;477.20;;
9807;SDS011;4943;52.550;13.462;2023-09-08T13:30:08;436.70;;;397.53;;
9807;SDS011;4943;52.550;13.462;2023-09-08T13:32:37;386.63;;;348.63;;
9807;SDS011;4943;52.550;13.462;2023-09-08T13:35:06;462.67;;;423.20;;
9807;SDS011;4943;52.550;13.462;2023-09-08T13:37:35;482.67;;;442.07;;
9807;SDS011;4943;52.550;13.462;2023-09-08T13:40:06;486.70;;;446.17;;
9807;SDS011;4943;52.550;13.462;2023-09-08T13:42:35;380.70;;;343.47;;
9807;SDS011;4943;52.550;13.462;2023-09-08T13:45:04;374.87;;;337.57;;
9807;SDS011;4943;52.550;13.462;2023-09-08T13:47:34;418.77;;;379.67;;
9807;SDS011;4943;52.550;13.462;2023-09-08T13:50:06;352.73;;;316.33;;
9807;SDS011;4943;52.550;13.462;2023-09-08T13:52:36;364.67;;;327.30;;
9807;SDS011;4943;52.550;13.462;2023-09-08T13:55:08;351.10;;;314.60;;
9807;SDS011;4943;52.550;13.462;2023-09-08T13:57:57;352.13;;;315.83;;
9807;SDS011;4943;52.550;13.462;2023-09-08T14:00:27;334.13;;;298.57;;
9807;SDS011;4943;52.550;13.462;2023-09-08T14:02:57;355.63;;;318.43;;
9807;SDS011;4943;52.550;13.462;2023-09-08T14:05:32;351.87;;;315.20;;
9807;SDS011;4943;52.550;13.462;2023-09-08T14:08:04;344.13;;;307.80;;
9807;SDS011;4943;52.550;13.462;2023-09-08T14:10:45;337.90;;;302.07;;
9807;SDS011;4943;52.550;13.462;2023-09-08T14:13:29;334.57;;;298.23;;
9807;SDS011;4943;52.550;13.462;2023-09-08T14:15:57;329.90;;;294.57;;
9807;SDS011;4943;52.550;13.462;2023-09-08T14:18:28;321.07;;;285.87;;
9807;SDS011;4943;52.550;13.462;2023-09-08T14:20:56;334.20;;;297.90;;
9807;SDS011;4943;52.550;13.462;2023-09-08T14:23:25;325.07;;;289.83;;
9807;SDS011;4943;52.550;13.462;2023-09-08T14:25:54;335.33;;;299.03;;